Current | Forecast
Updated: 2:00 AM JST on October 24, 2017
Observed at Saga Airport, Japan
Temperature 50°F
Humidity 94%
Dew Point 48°F
Wind North at 6 mph
Pressure 30.09 in (Steady)
Conditions Partly Cloudy
Visibility 6.2 miles
UV 0 out of 16
Clouds (FEW) : 3000 ft
Yesterday's Maximum 66°F
Yesterday's Minimum 57°F approx.
Yesterday's Heating Degree Days 3 approx.
Sunrise6:32 AM JST
Sunset5:37 PM JST
Moon Rise10:14 AM JST
Moon Set8:50 PM JST
Moon PhaseMoon Phase
Waxing Crescent
Raw METARMETAR RJFS 231700Z 01005KT 330V040 9999 FEW030 BKN/// 10/09 Q1019


Monday
. High: 73° F.
Tuesday
. High: 71° F.
Wednesday
. High: 68° F.
Thursday
. High: 71° F.
Friday
. High: 69° F.
Saturday
. High: 73° F.
Sunday
. High: 75° F.
Monday
. High: 75° F.

Units: English | Metric

Find the Weather for any City, State or Zipcode, or Country:

U.S. State List | Severe Weather | Tropical Storms | Ski Conditions
United States | Canada | Central America | South America | Asia | Europe | Australia | Africa | Islands

Weather Underground

© Copyright 2017
The Weather Company, LLC